createdAt,value
2017-02-21T00:01:03.560Z,19.79
2017-02-21T00:02:13.932Z,19.81
2017-02-21T00:03:23.883Z,19.78
2017-02-21T00:04:34.629Z,19.78
2017-02-21T00:05:44.582Z,19.74
2017-02-21T00:06:55.187Z,19.75
2017-02-21T00:08:05.529Z,19.81
2017-02-21T00:09:16.273Z,19.79
2017-02-21T00:10:26.619Z,19.74
2017-02-21T00:11:36.966Z,19.87
2017-02-21T00:12:47.992Z,19.87
2017-02-21T00:13:58.744Z,19.84
2017-02-21T00:15:09.505Z,19.82
2017-02-21T00:16:19.455Z,19.77
2017-02-21T00:17:29.823Z,19.78
2017-02-21T00:18:40.452Z,19.82
2017-02-21T00:19:50.424Z,19.78
2017-02-21T00:21:00.370Z,19.79
2017-02-21T00:22:10.315Z,19.84
2017-02-21T00:23:20.662Z,19.77
2017-02-21T00:24:31.642Z,19.75
2017-02-21T00:25:42.426Z,19.85
2017-02-21T00:26:53.185Z,19.75
2017-02-21T00:28:03.551Z,19.78
2017-02-21T00:29:14.322Z,19.81
2017-02-21T00:30:24.920Z,19.82
2017-02-21T00:31:34.863Z,19.78
2017-02-21T00:32:45.221Z,19.85
2017-02-21T00:33:55.570Z,19.84
2017-02-21T00:35:05.534Z,19.78
2017-02-21T00:36:16.127Z,19.84
2017-02-21T00:37:26.074Z,19.78
2017-02-21T00:38:36.421Z,19.78
2017-02-21T00:39:47.173Z,19.82
2017-02-21T00:40:57.915Z,19.72
2017-02-21T00:42:08.913Z,19.79
2017-02-21T00:43:19.654Z,19.81
2017-02-21T00:44:30.012Z,19.81
2017-02-21T00:45:40.784Z,19.78
2017-02-21T00:46:51.138Z,19.87
2017-02-21T00:48:02.152Z,19.82
2017-02-21T00:49:12.490Z,19.84
2017-02-21T00:50:22.440Z,19.77
2017-02-21T00:51:31.985Z,19.82
2017-02-21T00:52:42.727Z,19.77
2017-02-21T00:53:53.762Z,19.72
2017-02-21T00:55:04.514Z,19.75
2017-02-21T00:56:14.459Z,19.71
2017-02-21T00:57:24.821Z,19.78
2017-02-21T00:58:34.786Z,19.87
2017-02-21T00:59:45.829Z,19.71
2017-02-21T01:00:55.784Z,19.84
2017-02-21T01:02:05.737Z,19.75
2017-02-21T01:03:16.488Z,19.79
2017-02-21T01:04:27.228Z,19.78
2017-02-21T01:05:37.481Z,19.79
2017-02-21T01:06:48.241Z,19.75
2017-02-21T01:07:58.607Z,19.82
2017-02-21T01:09:09.365Z,19.84
2017-02-21T01:10:20.104Z,19.85
2017-02-21T01:11:30.741Z,19.77
2017-02-21T01:12:41.483Z,19.81
2017-02-21T01:13:51.442Z,19.78
2017-02-21T01:15:01.817Z,19.87
2017-02-21T01:16:11.769Z,19.75
2017-02-21T01:17:22.427Z,19.81
2017-02-21T01:18:32.782Z,19.72
2017-02-21T01:19:43.540Z,19.79
2017-02-21T01:20:54.286Z,19.81
2017-02-21T01:22:04.669Z,19.72
2017-02-21T01:23:15.667Z,19.74
2017-02-21T01:24:26.402Z,19.75
2017-02-21T01:25:36.367Z,19.75
2017-02-21T01:26:46.721Z,19.85
2017-02-21T01:27:56.680Z,19.72
2017-02-21T01:29:06.901Z,19.79
2017-02-21T01:30:17.646Z,19.81
2017-02-21T01:31:28.392Z,19.79
2017-02-21T01:32:38.338Z,19.72
2017-02-21T01:33:48.676Z,19.84
2017-02-21T01:34:59.692Z,19.81
2017-02-21T01:36:10.030Z,19.87
2017-02-21T01:37:20.384Z,19.81
2017-02-21T01:38:30.746Z,19.75
2017-02-21T01:39:40.696Z,19.75
2017-02-21T01:40:51.278Z,19.81
2017-02-21T01:42:01.218Z,19.81
2017-02-21T01:43:11.551Z,19.81
2017-02-21T01:44:21.492Z,19.72
2017-02-21T01:45:31.848Z,19.74
2017-02-21T01:46:42.890Z,19.71
2017-02-21T01:47:53.643Z,19.7
2017-02-21T01:49:03.976Z,19.72
2017-02-21T01:50:13.540Z,19.79
2017-02-21T01:51:24.286Z,19.87
2017-02-21T01:52:34.923Z,19.77
2017-02-21T01:53:44.868Z,19.79
2017-02-21T01:54:55.221Z,19.81
2017-02-21T01:56:04.779Z,19.74
2017-02-21T01:57:15.519Z,19.78
2017-02-21T01:58:26.168Z,19.71
2017-02-21T01:59:36.501Z,19.84
2017-02-21T02:00:46.068Z,19.74
2017-02-21T02:01:56.020Z,19.71
2017-02-21T02:03:05.976Z,19.72
2017-02-21T02:04:15.028Z,19.75
2017-02-21T02:05:25.380Z,19.81
2017-02-21T02:06:35.727Z,19.72
2017-02-21T02:07:46.085Z,19.67
2017-02-21T02:08:56.075Z,19.72
2017-02-21T02:10:05.934Z,19.74
2017-02-21T02:11:15.884Z,19.71
2017-02-21T02:12:25.841Z,19.79
2017-02-21T02:13:35.801Z,19.77
2017-02-21T02:14:46.153Z,19.75
2017-02-21T02:15:57.143Z,19.79
2017-02-21T02:17:07.899Z,19.71
2017-02-21T02:18:18.638Z,19.72
2017-02-21T02:19:29.001Z,19.75
2017-02-21T02:20:39.358Z,19.72
2017-02-21T02:21:50.353Z,19.7
2017-02-21T02:23:01.095Z,19.66
2017-02-21T02:24:11.045Z,19.71
2017-02-21T02:25:20.609Z,19.67
2017-02-21T02:26:30.955Z,19.79
2017-02-21T02:27:42.002Z,19.72
2017-02-21T02:28:52.760Z,19.81
2017-02-21T02:30:02.712Z,19.74
2017-02-21T02:31:13.098Z,19.77
2017-02-21T02:32:23.044Z,19.81
2017-02-21T02:33:32.875Z,19.74
2017-02-21T02:34:43.224Z,19.7
2017-02-21T02:35:53.969Z,19.7
2017-02-21T02:37:04.339Z,19.77
2017-02-21T02:38:15.083Z,19.67
2017-02-21T02:39:25.685Z,19.7
2017-02-21T02:40:35.620Z,19.79
2017-02-21T02:41:45.984Z,19.79
2017-02-21T02:42:56.725Z,19.72
2017-02-21T02:44:07.473Z,19.77
2017-02-21T02:45:18.498Z,19.7
2017-02-21T02:46:28.851Z,19.7
2017-02-21T02:47:39.242Z,19.7
2017-02-21T02:48:49.207Z,19.79
2017-02-21T02:49:59.166Z,19.67
2017-02-21T02:51:09.828Z,19.74
2017-02-21T02:52:19.760Z,19.64
2017-02-21T02:53:30.503Z,19.66
2017-02-21T02:54:40.847Z,19.82
2017-02-21T02:55:50.804Z,19.64
2017-02-21T02:57:01.067Z,19.75
2017-02-21T02:58:10.617Z,19.78
2017-02-21T02:59:20.963Z,19.79
2017-02-21T03:00:31.702Z,19.82
2017-02-21T03:01:41.661Z,19.78
2017-02-21T03:02:51.851Z,19.7
2017-02-21T03:04:02.602Z,19.7
2017-02-21T03:05:12.960Z,19.82
2017-02-21T03:06:23.318Z,19.71
2017-02-21T03:07:32.866Z,19.66
2017-02-21T03:08:43.482Z,19.77
2017-02-21T03:09:52.688Z,19.67
2017-02-21T03:11:03.450Z,19.81
2017-02-21T03:12:14.193Z,19.7
2017-02-21T03:13:24.137Z,19.72
2017-02-21T03:14:34.770Z,19.85
2017-02-21T03:15:45.147Z,19.7
2017-02-21T03:16:55.507Z,19.67
2017-02-21T03:18:05.840Z,19.72
2017-02-21T03:19:16.195Z,19.67
2017-02-21T03:20:26.883Z,19.72
2017-02-21T03:21:37.225Z,19.81
2017-02-21T03:22:47.571Z,19.7
2017-02-21T03:23:58.318Z,19.7
2017-02-21T03:25:08.662Z,19.7
2017-02-21T03:26:19.255Z,19.75
2017-02-21T03:27:30.013Z,19.85
2017-02-21T03:28:39.555Z,19.74
2017-02-21T03:29:50.291Z,19.82
2017-02-21T03:31:00.237Z,19.71
2017-02-21T03:32:10.839Z,19.7
2017-02-21T03:33:20.793Z,19.66
2017-02-21T03:34:30.753Z,19.66
2017-02-21T03:35:40.797Z,19.72
2017-02-21T03:36:50.748Z,19.66
2017-02-21T03:38:01.793Z,19.71
2017-02-21T03:39:11.747Z,19.67
2017-02-21T03:40:22.493Z,19.66
2017-02-21T03:41:33.241Z,19.77
2017-02-21T03:42:42.828Z,19.77
2017-02-21T03:43:53.089Z,19.71
2017-02-21T03:45:03.850Z,19.66
2017-02-21T03:46:13.812Z,19.81
2017-02-21T03:47:23.755Z,19.74
2017-02-21T03:48:34.518Z,19.7
2017-02-21T03:49:45.513Z,19.74
2017-02-21T03:50:55.868Z,19.71
2017-02-21T03:52:05.836Z,19.78
2017-02-21T03:53:16.576Z,19.81
2017-02-21T03:54:27.317Z,19.74
2017-02-21T03:55:37.165Z,19.72
2017-02-21T03:56:47.515Z,19.7
2017-02-21T03:57:57.703Z,19.82
2017-02-21T03:59:07.670Z,19.72
2017-02-21T04:00:17.996Z,19.66
2017-02-21T04:01:28.616Z,19.81
2017-02-21T04:02:38.967Z,19.7
2017-02-21T04:03:49.317Z,19.78
2017-02-21T04:05:00.080Z,19.7
2017-02-21T04:06:10.429Z,19.81
2017-02-21T04:07:21.658Z,19.66
2017-02-21T04:08:31.997Z,19.71
2017-02-21T04:09:42.337Z,19.71
2017-02-21T04:10:52.689Z,19.7
2017-02-21T04:12:02.627Z,19.7
2017-02-21T04:13:12.825Z,19.71
2017-02-21T04:14:23.558Z,19.64
2017-02-21T04:15:34.314Z,19.7
2017-02-21T04:16:44.272Z,19.7
2017-02-21T04:17:53.840Z,19.66
2017-02-21T04:19:04.097Z,19.74
2017-02-21T04:20:14.051Z,19.72
2017-02-21T04:21:24.419Z,19.77
2017-02-21T04:22:35.152Z,19.71
2017-02-21T04:23:45.110Z,19.79
2017-02-21T04:24:55.788Z,19.7
2017-02-21T04:26:05.753Z,19.66
2017-02-21T04:27:15.722Z,19.7
2017-02-21T04:28:26.076Z,19.74
2017-02-21T04:29:36.450Z,19.64
2017-02-21T04:30:47.098Z,19.72
2017-02-21T04:31:57.460Z,19.72
2017-02-21T04:33:07.847Z,19.66
2017-02-21T04:34:17.799Z,19.72
2017-02-21T04:35:28.151Z,19.66
2017-02-21T04:36:39.162Z,19.72
2017-02-21T04:37:49.516Z,19.7
2017-02-21T04:39:00.259Z,19.77
2017-02-21T04:40:10.208Z,19.72
2017-02-21T04:41:20.948Z,19.7
2017-02-21T04:42:31.149Z,19.7
2017-02-21T04:43:41.120Z,19.74
2017-02-21T04:44:51.075Z,19.7
2017-02-21T04:46:01.479Z,19.7
2017-02-21T04:47:11.842Z,19.72
2017-02-21T04:48:22.425Z,19.67
2017-02-21T04:49:33.175Z,19.74
2017-02-21T04:50:43.530Z,19.72
2017-02-21T04:51:52.703Z,19.72
2017-02-21T04:53:02.673Z,19.75
2017-02-21T04:54:12.947Z,19.62
2017-02-21T04:55:22.519Z,19.72
2017-02-21T04:56:32.856Z,19.7
2017-02-21T04:57:42.808Z,19.71
2017-02-21T04:58:53.143Z,19.7
2017-02-21T05:00:03.786Z,19.67
2017-02-21T05:01:14.138Z,19.63
2017-02-21T05:02:24.521Z,19.74
2017-02-21T05:03:35.271Z,19.74
2017-02-21T05:04:46.023Z,19.71
2017-02-21T05:05:56.630Z,19.71
2017-02-21T05:07:07.371Z,19.7
2017-02-21T05:08:18.115Z,19.66
2017-02-21T05:09:28.472Z,19.7
2017-02-21T05:10:38.858Z,19.77
2017-02-21T05:11:49.483Z,19.7
2017-02-21T05:12:59.824Z,19.74
2017-02-21T05:14:10.197Z,19.77
2017-02-21T05:15:20.953Z,19.74
2017-02-21T05:16:31.697Z,19.77
2017-02-21T05:17:41.558Z,19.7
2017-02-21T05:18:51.505Z,19.71
2017-02-21T05:20:01.862Z,19.72
2017-02-21T05:21:11.834Z,19.71
2017-02-21T05:22:22.585Z,19.78
2017-02-21T05:23:32.836Z,19.66
2017-02-21T05:24:43.572Z,19.75
2017-02-21T05:25:53.546Z,19.7
2017-02-21T05:27:04.307Z,19.7
2017-02-21T05:28:14.247Z,19.66
2017-02-21T05:29:24.433Z,19.67
2017-02-21T05:30:34.414Z,19.7
2017-02-21T05:31:44.773Z,19.7
2017-02-21T05:32:55.128Z,19.74
2017-02-21T05:34:05.479Z,19.71
2017-02-21T05:35:16.086Z,19.7
2017-02-21T05:36:26.814Z,19.74
2017-02-21T05:37:36.770Z,19.81
2017-02-21T05:38:47.115Z,19.79
2017-02-21T05:39:57.459Z,19.81
2017-02-21T05:41:07.711Z,19.77
2017-02-21T05:42:18.459Z,19.74
2017-02-21T05:43:28.430Z,19.7
2017-02-21T05:44:38.811Z,19.7
2017-02-21T05:45:48.765Z,19.77
2017-02-21T05:46:58.968Z,19.7
2017-02-21T05:48:09.347Z,19.74
2017-02-21T05:49:19.691Z,19.74
2017-02-21T05:50:29.671Z,19.71
2017-02-21T05:51:39.665Z,19.72
2017-02-21T05:52:50.279Z,19.77
2017-02-21T05:54:00.250Z,19.77
2017-02-21T05:55:10.599Z,19.7
2017-02-21T05:56:20.148Z,19.74
2017-02-21T05:57:30.524Z,19.74
2017-02-21T05:58:40.782Z,19.77
2017-02-21T05:59:51.533Z,19.77
2017-02-21T06:01:02.283Z,19.74
2017-02-21T06:02:12.618Z,19.71
2017-02-21T06:03:22.977Z,19.7
2017-02-21T06:04:33.175Z,19.78
2017-02-21T06:05:43.540Z,19.66
2017-02-21T06:06:54.293Z,19.78
2017-02-21T06:08:05.047Z,19.72
2017-02-21T06:09:15.384Z,19.72
2017-02-21T06:10:26.033Z,19.72
2017-02-21T06:11:36.026Z,19.72
2017-02-21T06:12:46.765Z,19.7
2017-02-21T06:13:57.508Z,19.64
2017-02-21T06:15:07.857Z,19.77
2017-02-21T06:16:18.468Z,19.64
2017-02-21T06:17:28.657Z,19.74
2017-02-21T06:18:39.411Z,19.7
2017-02-21T06:19:50.180Z,19.67
2017-02-21T06:21:00.555Z,19.72
2017-02-21T06:22:11.614Z,19.7
2017-02-21T06:23:21.173Z,19.74
2017-02-21T06:24:31.526Z,19.79
2017-02-21T06:25:41.902Z,19.77
2017-02-21T06:26:51.870Z,19.77
2017-02-21T06:28:02.191Z,19.7
2017-02-21T06:29:12.944Z,19.85
2017-02-21T06:30:23.690Z,19.71
2017-02-21T06:31:34.436Z,19.84
2017-02-21T06:32:45.179Z,19.7
2017-02-21T06:33:55.381Z,19.78
2017-02-21T06:35:04.944Z,19.81
2017-02-21T06:36:15.826Z,19.75
2017-02-21T06:37:24.983Z,19.72
2017-02-21T06:38:35.726Z,19.77
2017-02-21T06:39:45.984Z,19.74
2017-02-21T06:40:55.941Z,19.82
2017-02-21T06:42:06.684Z,19.7
2017-02-21T06:43:16.651Z,19.84
2017-02-21T06:44:26.619Z,19.77
2017-02-21T06:45:37.274Z,19.82
2017-02-21T06:46:48.060Z,19.78
2017-02-21T06:47:58.829Z,19.7
2017-02-21T06:49:08.398Z,19.71
2017-02-21T06:50:18.756Z,19.79
2017-02-21T06:51:29.012Z,19.78
2017-02-21T06:52:39.786Z,19.71
2017-02-21T06:53:50.539Z,19.81
2017-02-21T06:55:00.912Z,19.84
2017-02-21T06:56:10.887Z,19.82
2017-02-21T06:57:21.083Z,19.81
2017-02-21T06:58:31.048Z,19.72
2017-02-21T06:59:41.442Z,19.81
2017-02-21T07:00:52.202Z,19.79
2017-02-21T07:02:02.999Z,19.71
2017-02-21T07:03:13.874Z,19.79
2017-02-21T07:04:24.250Z,19.82
2017-02-21T07:05:34.215Z,19.74
2017-02-21T07:06:44.974Z,19.79
2017-02-21T07:07:55.771Z,19.84
2017-02-21T07:09:06.785Z,19.75
2017-02-21T07:10:17.547Z,19.82
2017-02-21T07:11:28.295Z,19.84
2017-02-21T07:12:39.058Z,19.82
2017-02-21T07:13:49.422Z,19.78
2017-02-21T07:15:00.599Z,19.81
2017-02-21T07:16:10.567Z,19.75
2017-02-21T07:17:20.520Z,19.81
2017-02-21T07:18:30.876Z,19.81
2017-02-21T07:19:41.300Z,19.87
2017-02-21T07:20:52.353Z,19.81
2017-02-21T07:22:02.734Z,19.75
2017-02-21T07:23:13.571Z,19.78
2017-02-21T07:24:23.562Z,19.87
2017-02-21T07:25:33.943Z,19.87
2017-02-21T07:26:44.199Z,19.77
2017-02-21T07:27:54.577Z,19.81
2017-02-21T07:29:05.333Z,19.82
2017-02-21T07:30:15.688Z,19.79
2017-02-21T07:31:26.456Z,19.87
2017-02-21T07:32:36.732Z,19.77
2017-02-21T07:33:47.087Z,19.84
2017-02-21T07:34:57.821Z,19.79
2017-02-21T07:36:08.583Z,19.85
2017-02-21T07:37:18.941Z,19.77
2017-02-21T07:38:29.547Z,19.81
2017-02-21T07:39:40.314Z,19.78
2017-02-21T07:40:51.069Z,19.75
2017-02-21T07:42:01.498Z,19.87
2017-02-21T07:43:12.276Z,19.72
2017-02-21T07:44:23.348Z,19.84
2017-02-21T07:45:34.103Z,19.72
2017-02-21T07:46:44.463Z,19.89
2017-02-21T07:47:54.833Z,19.82
2017-02-21T07:49:05.217Z,19.75
2017-02-21T07:50:15.488Z,19.87
2017-02-21T07:51:26.229Z,19.82
2017-02-21T07:52:36.599Z,19.79
2017-02-21T07:53:46.187Z,19.92
2017-02-21T07:54:56.974Z,19.94
2017-02-21T07:56:07.589Z,19.85
2017-02-21T07:57:17.605Z,19.9
2017-02-21T07:58:28.354Z,19.9
2017-02-21T07:59:38.314Z,19.87
2017-02-21T08:00:48.695Z,19.9
2017-02-21T08:01:58.928Z,19.89
2017-02-21T08:03:09.278Z,19.84
2017-02-21T08:04:18.887Z,19.89
2017-02-21T08:05:29.257Z,19.87
2017-02-21T08:06:40.029Z,19.87
2017-02-21T08:07:51.104Z,19.85
2017-02-21T08:09:01.890Z,19.84
2017-02-21T08:10:11.502Z,19.89
2017-02-21T08:11:22.268Z,19.82
2017-02-21T08:12:33.222Z,19.82
2017-02-21T08:13:44.266Z,19.85
2017-02-21T08:14:54.637Z,19.89
2017-02-21T08:16:05.457Z,19.92
2017-02-21T08:17:15.837Z,19.85
2017-02-21T08:18:26.215Z,19.84
2017-02-21T08:19:36.832Z,19.79
2017-02-21T08:20:46.818Z,19.81
2017-02-21T08:21:56.778Z,19.77
2017-02-21T08:23:07.166Z,19.77
2017-02-21T08:24:17.947Z,19.78
2017-02-21T08:25:28.576Z,19.77
2017-02-21T08:26:39.360Z,19.87
2017-02-21T08:27:49.737Z,19.87
2017-02-21T08:29:00.113Z,19.82
2017-02-21T08:30:10.472Z,19.75
2017-02-21T08:31:21.277Z,19.85
2017-02-21T08:32:32.025Z,19.84
2017-02-21T08:33:41.982Z,19.87
2017-02-21T08:34:52.329Z,19.85
2017-02-21T08:36:02.274Z,19.97
2017-02-21T08:37:12.471Z,19.85
2017-02-21T08:38:22.440Z,19.93
2017-02-21T08:39:33.193Z,20
2017-02-21T08:40:43.965Z,19.99
2017-02-21T08:41:55.003Z,19.97
2017-02-21T08:43:05.397Z,20.12
2017-02-21T08:44:16.156Z,20.14
2017-02-21T08:45:26.897Z,20.11
2017-02-21T08:46:37.640Z,20.17
2017-02-21T08:47:48.667Z,20.14
2017-02-21T08:48:59.046Z,20.12
2017-02-21T08:50:09.031Z,20.12
2017-02-21T08:51:19.019Z,20.12
2017-02-21T08:52:29.768Z,20.14
2017-02-21T08:53:40.341Z,20.14
2017-02-21T08:54:50.415Z,20.11
2017-02-21T08:56:00.754Z,20.12
2017-02-21T08:57:10.309Z,20.11
2017-02-21T08:58:21.060Z,20.14
2017-02-21T08:59:30.889Z,20.21
2017-02-21T09:00:41.246Z,20.14
2017-02-21T09:01:51.609Z,20.14
2017-02-21T09:03:01.970Z,20.18
2017-02-21T09:04:12.731Z,20.14
2017-02-21T09:05:23.351Z,20.27
2017-02-21T09:06:33.712Z,20.12
2017-02-21T09:07:44.110Z,20.08
2017-02-21T09:08:54.068Z,20.11
2017-02-21T09:10:04.049Z,20.11
2017-02-21T09:11:14.247Z,20.19
2017-02-21T09:12:24.619Z,20.24
2017-02-21T09:13:34.980Z,20.24
2017-02-21T09:14:45.358Z,20.22
2017-02-21T09:15:55.722Z,20.21
2017-02-21T09:17:06.780Z,20.18
2017-02-21T09:18:17.127Z,20.26
2017-02-21T09:19:26.700Z,20.3
2017-02-21T09:20:36.256Z,20.46
2017-02-21T09:21:46.613Z,20.42
2017-02-21T09:22:57.636Z,20.4
2017-02-21T09:24:07.989Z,20.46
2017-02-21T09:25:18.356Z,20.46
2017-02-21T09:26:28.352Z,20.56
2017-02-21T09:27:38.939Z,20.59
2017-02-21T09:28:49.572Z,20.46
2017-02-21T09:30:00.313Z,20.55
2017-02-21T09:31:10.685Z,20.58
2017-02-21T09:32:21.088Z,20.63
2017-02-21T09:33:31.446Z,20.64
2017-02-21T09:34:42.432Z,20.68
2017-02-21T09:35:52.397Z,20.73
2017-02-21T09:37:02.765Z,20.75
2017-02-21T09:38:13.122Z,20.78
2017-02-21T09:39:23.478Z,20.77
2017-02-21T09:40:34.480Z,20.77
2017-02-21T09:41:44.467Z,20.75
2017-02-21T09:42:55.241Z,20.78
2017-02-21T09:44:05.609Z,20.78
2017-02-21T09:45:15.571Z,20.73
2017-02-21T09:46:26.182Z,20.73
2017-02-21T09:47:36.152Z,20.73
2017-02-21T09:48:46.137Z,20.83
2017-02-21T09:49:55.726Z,20.85
2017-02-21T09:51:06.499Z,20.86
2017-02-21T09:52:17.795Z,20.85
2017-02-21T09:53:27.365Z,20.92
2017-02-21T09:54:38.112Z,20.85
2017-02-21T09:55:48.847Z,20.98
2017-02-21T09:56:58.831Z,20.96
2017-02-21T09:58:09.484Z,20.89
2017-02-21T09:59:19.838Z,20.92
2017-02-21T10:00:30.233Z,21.01
2017-02-21T10:01:40.321Z,20.98
2017-02-21T10:02:51.145Z,21.01
2017-02-21T10:04:02.117Z,20.96
2017-02-21T10:05:12.079Z,21.03
2017-02-21T10:06:22.847Z,21.11
2017-02-21T10:07:32.810Z,21.03
2017-02-21T10:08:43.580Z,21.08
2017-02-21T10:09:54.201Z,21.13
2017-02-21T10:11:04.152Z,21
2017-02-21T10:12:13.717Z,21.04
2017-02-21T10:13:24.082Z,21.11
2017-02-21T10:14:33.641Z,21.1
2017-02-21T10:15:43.910Z,21.11
2017-02-21T10:16:53.868Z,21.13
2017-02-21T10:18:03.845Z,21.01
2017-02-21T10:19:13.804Z,21.01
2017-02-21T10:20:24.556Z,21.03
2017-02-21T10:21:35.154Z,21.07
2017-02-21T10:22:45.503Z,21.05
2017-02-21T10:23:55.876Z,21.01
2017-02-21T10:25:05.845Z,21.05
2017-02-21T10:26:16.197Z,21.07
2017-02-21T10:27:26.819Z,21.01
2017-02-21T10:28:37.570Z,21.01
2017-02-21T10:29:48.325Z,20.95
2017-02-21T10:30:58.712Z,21.03
2017-02-21T10:32:09.494Z,20.9
2017-02-21T10:33:20.541Z,20.93
2017-02-21T10:34:30.682Z,20.88
2017-02-21T10:35:41.036Z,20.9
2017-02-21T10:36:51.382Z,20.9
2017-02-21T10:38:01.356Z,20.85
2017-02-21T10:39:11.990Z,20.86
2017-02-21T10:40:21.923Z,20.93
2017-02-21T10:41:32.297Z,20.86
2017-02-21T10:42:42.651Z,20.88
2017-02-21T10:43:52.212Z,20.83
2017-02-21T10:45:02.889Z,20.93
2017-02-21T10:46:12.869Z,20.89
2017-02-21T10:47:23.638Z,20.92
2017-02-21T10:48:34.003Z,20.92
2017-02-21T10:49:43.949Z,20.83
2017-02-21T10:50:54.172Z,20.89
2017-02-21T10:52:04.925Z,20.89
2017-02-21T10:53:14.885Z,20.92
2017-02-21T10:54:25.282Z,20.85
2017-02-21T10:55:35.657Z,20.89
2017-02-21T10:56:45.919Z,20.96
2017-02-21T10:57:56.662Z,20.96
2017-02-21T10:59:07.011Z,21.05
2017-02-21T11:00:17.381Z,20.98
2017-02-21T11:01:28.102Z,21.04
2017-02-21T11:02:38.295Z,21.01
2017-02-21T11:03:49.059Z,20.95
2017-02-21T11:04:59.882Z,21
2017-02-21T11:06:09.851Z,21
2017-02-21T11:07:20.594Z,21.01
2017-02-21T11:08:30.849Z,21.05
2017-02-21T11:09:41.194Z,21.05
2017-02-21T11:10:51.976Z,21
2017-02-21T11:12:02.353Z,21.01
2017-02-21T11:13:12.697Z,21.01
2017-02-21T11:14:23.671Z,21.11
2017-02-21T11:15:34.045Z,21.05
2017-02-21T11:16:44.040Z,21.08
2017-02-21T11:17:54.443Z,21.03
2017-02-21T11:19:04.859Z,21.03
2017-02-21T11:20:15.233Z,21.03
2017-02-21T11:21:25.208Z,21.03
2017-02-21T11:22:35.582Z,20.95
2017-02-21T11:23:45.551Z,21.03
2017-02-21T11:24:55.922Z,21.01
2017-02-21T11:26:06.292Z,20.95
2017-02-21T11:27:17.051Z,20.86
2017-02-21T11:28:27.816Z,21.01
2017-02-21T11:29:38.159Z,21.01
2017-02-21T11:30:49.053Z,21.04
2017-02-21T11:31:59.403Z,21.05
2017-02-21T11:33:09.778Z,21.05
2017-02-21T11:34:20.522Z,21.03
2017-02-21T11:35:30.501Z,21.04
2017-02-21T11:36:41.301Z,21.07
2017-02-21T11:37:52.060Z,21.01
2017-02-21T11:39:02.395Z,21.04
2017-02-21T11:40:11.948Z,21.08
2017-02-21T11:41:22.287Z,21.05
2017-02-21T11:42:32.892Z,21.01
2017-02-21T11:43:43.651Z,21.03
2017-02-21T11:44:54.406Z,21.04
2017-02-21T11:46:04.343Z,21.01
2017-02-21T11:47:14.712Z,21.1
2017-02-21T11:48:25.713Z,21.13
2017-02-21T11:49:36.502Z,21.03
2017-02-21T11:50:45.677Z,21.08
2017-02-21T11:51:56.470Z,21.1
2017-02-21T11:53:06.460Z,21.13
2017-02-21T11:54:17.488Z,21.13
2017-02-21T11:55:27.080Z,21.14
2017-02-21T11:56:37.430Z,21.15
2017-02-21T11:57:46.992Z,21.19
2017-02-21T11:58:57.738Z,21.13
2017-02-21T12:00:08.753Z,21.11
2017-02-21T12:01:18.723Z,21.13
2017-02-21T12:02:28.706Z,21.1
2017-02-21T12:03:39.443Z,21.14
2017-02-21T12:04:50.181Z,21.17
2017-02-21T12:06:00.039Z,21.15
2017-02-21T12:07:10.391Z,21.13
2017-02-21T12:08:20.356Z,21.08
2017-02-21T12:09:30.751Z,21.17
2017-02-21T12:10:41.088Z,21.19
2017-02-21T12:11:51.680Z,21.08
2017-02-21T12:13:01.238Z,21.1
2017-02-21T12:14:11.987Z,21.14
2017-02-21T12:15:22.715Z,21.14
2017-02-21T12:16:33.085Z,21.14
2017-02-21T12:17:44.087Z,21.15
2017-02-21T12:18:54.822Z,21.17
2017-02-21T12:20:05.426Z,21.17
2017-02-21T12:21:15.779Z,21.17
2017-02-21T12:22:26.127Z,21.13
2017-02-21T12:23:36.328Z,21.17
2017-02-21T12:24:46.358Z,21.22
2017-02-21T12:25:55.536Z,21.11
2017-02-21T12:27:05.896Z,21.17
2017-02-21T12:28:16.257Z,21.19
2017-02-21T12:29:26.078Z,21.1
2017-02-21T12:30:36.531Z,21.15
2017-02-21T12:31:47.291Z,21.19
2017-02-21T12:32:57.633Z,21.11
2017-02-21T12:34:08.400Z,21.19
2017-02-21T12:35:19.050Z,21.19
2017-02-21T12:36:29.796Z,21.22
2017-02-21T12:37:40.161Z,21.23
2017-02-21T12:38:50.945Z,21.19
2017-02-21T12:40:01.736Z,21.17
2017-02-21T12:41:12.327Z,21.17
2017-02-21T12:42:22.280Z,21.17
2017-02-21T12:43:32.244Z,21.14
2017-02-21T12:44:42.581Z,21.19
2017-02-21T12:45:52.945Z,21.14
2017-02-21T12:47:03.204Z,21.14
2017-02-21T12:48:13.168Z,21.1
2017-02-21T12:49:23.131Z,21.14
2017-02-21T12:50:33.509Z,21.11
2017-02-21T12:51:43.924Z,21.14
2017-02-21T12:52:53.896Z,21.13
2017-02-21T12:54:04.668Z,21.13
2017-02-21T12:55:15.675Z,21.11
2017-02-21T12:56:26.439Z,21.14
2017-02-21T12:57:37.029Z,21.28
2017-02-21T12:58:47.755Z,21.28
2017-02-21T12:59:58.500Z,21.2
2017-02-21T13:01:08.874Z,21.26
2017-02-21T13:02:19.251Z,21.3
2017-02-21T13:03:29.458Z,21.25
2017-02-21T13:04:39.809Z,21.22
2017-02-21T13:05:50.201Z,21.22
2017-02-21T13:07:00.212Z,21.25
2017-02-21T13:08:10.987Z,21.28
2017-02-21T13:09:22.036Z,21.3
2017-02-21T13:10:32.795Z,21.35
2017-02-21T13:11:42.364Z,21.32
2017-02-21T13:12:52.616Z,21.29
2017-02-21T13:14:03.362Z,21.33
2017-02-21T13:15:13.589Z,21.28
2017-02-21T13:16:24.335Z,21.32
2017-02-21T13:17:34.297Z,21.2
2017-02-21T13:18:44.674Z,21.29
2017-02-21T13:19:55.018Z,21.35
2017-02-21T13:21:05.627Z,21.32
2017-02-21T13:22:15.995Z,21.28
2017-02-21T13:23:26.820Z,21.26
2017-02-21T13:24:36.785Z,21.29
2017-02-21T13:25:47.150Z,21.33
2017-02-21T13:26:57.438Z,21.29
2017-02-21T13:28:08.163Z,21.3
2017-02-21T13:29:18.914Z,21.3
2017-02-21T13:30:28.500Z,21.38
2017-02-21T13:31:39.271Z,21.3
2017-02-21T13:32:49.879Z,21.38
2017-02-21T13:33:59.845Z,21.33
2017-02-21T13:35:10.585Z,21.35
2017-02-21T13:36:20.558Z,21.35
2017-02-21T13:37:31.336Z,21.41
2017-02-21T13:38:42.350Z,21.44
2017-02-21T13:39:52.320Z,21.45
2017-02-21T13:41:02.694Z,21.45
2017-02-21T13:42:13.030Z,21.44
2017-02-21T13:43:23.023Z,21.43
2017-02-21T13:44:33.642Z,21.44
2017-02-21T13:45:44.027Z,21.44
2017-02-21T13:46:54.001Z,21.51
2017-02-21T13:48:04.357Z,21.51
2017-02-21T13:49:14.716Z,21.48
2017-02-21T13:50:25.319Z,21.48
2017-02-21T13:51:35.676Z,21.48
2017-02-21T13:52:46.403Z,21.56
2017-02-21T13:53:56.749Z,21.51
2017-02-21T13:55:07.128Z,21.53
2017-02-21T13:56:17.759Z,21.48
2017-02-21T13:57:28.128Z,21.47
2017-02-21T13:58:38.503Z,21.48
2017-02-21T13:59:48.870Z,21.45
2017-02-21T14:00:58.786Z,21.48
2017-02-21T14:02:09.854Z,21.48
2017-02-21T14:03:20.637Z,21.45
2017-02-21T14:04:30.991Z,21.54
2017-02-21T14:05:41.359Z,21.4
2017-02-21T14:06:52.111Z,21.43
2017-02-21T14:08:02.741Z,21.44
2017-02-21T14:09:13.745Z,21.4
2017-02-21T14:10:24.082Z,21.41
2017-02-21T14:11:34.419Z,21.35
2017-02-21T14:12:44.739Z,21.3
2017-02-21T14:13:55.740Z,21.33
2017-02-21T14:15:06.115Z,21.3
2017-02-21T14:16:16.883Z,21.3
2017-02-21T14:17:27.295Z,21.29
2017-02-21T14:18:37.282Z,21.28
2017-02-21T14:19:48.275Z,21.33
2017-02-21T14:20:58.629Z,21.35
2017-02-21T14:22:08.578Z,21.29
2017-02-21T14:23:18.934Z,21.28
2017-02-21T14:24:29.918Z,21.38
2017-02-21T14:25:40.911Z,21.38
2017-02-21T14:26:50.857Z,21.26
2017-02-21T14:28:01.238Z,21.3
2017-02-21T14:29:12.006Z,21.29
2017-02-21T14:30:21.989Z,21.3
2017-02-21T14:31:33.101Z,21.23
2017-02-21T14:32:43.449Z,21.26
2017-02-21T14:33:53.416Z,21.29
2017-02-21T14:35:04.136Z,21.23
2017-02-21T14:36:14.867Z,21.3
2017-02-21T14:37:25.123Z,21.26
2017-02-21T14:38:35.502Z,21.25
2017-02-21T14:39:45.862Z,21.32
2017-02-21T14:40:56.221Z,21.23
2017-02-21T14:42:06.560Z,21.29
2017-02-21T14:43:16.825Z,21.3
2017-02-21T14:44:27.185Z,21.38
2017-02-21T14:45:37.539Z,21.35
2017-02-21T14:46:47.880Z,21.33
2017-02-21T14:47:58.659Z,21.25
2017-02-21T14:49:09.274Z,21.33
2017-02-21T14:50:19.266Z,21.32
2017-02-21T14:51:30.022Z,21.28
2017-02-21T14:52:40.010Z,21.33
2017-02-21T14:53:50.762Z,21.25
2017-02-21T14:55:01.448Z,21.28
2017-02-21T14:56:11.806Z,21.3
2017-02-21T14:57:22.579Z,21.23
2017-02-21T14:58:32.910Z,21.23
2017-02-21T14:59:42.879Z,21.25
2017-02-21T15:00:53.478Z,21.2
2017-02-21T15:02:03.463Z,21.28
2017-02-21T15:03:13.846Z,21.28
2017-02-21T15:04:23.453Z,21.2
2017-02-21T15:05:33.417Z,21.23
2017-02-21T15:06:44.424Z,21.23
2017-02-21T15:07:54.768Z,21.15
2017-02-21T15:09:05.139Z,21.15
2017-02-21T15:10:15.098Z,21.15
2017-02-21T15:11:25.866Z,21.14